sensor_id;sensor_type;location;lat;lon;timestamp;temperature;humidity
10276;DHT22;5183;51.190;6.820;2024-03-17T00:02:17;5.40;8.60
10276;DHT22;5183;51.190;6.820;2024-03-17T00:04:44;5.40;25.60
10276;DHT22;5183;51.190;6.820;2024-03-17T00:07:12;5.30;88.10
10276;DHT22;5183;51.190;6.820;2024-03-17T00:09:39;5.30;46.00
10276;DHT22;5183;51.190;6.820;2024-03-17T00:12:06;5.30;59.70
10276;DHT22;5183;51.190;6.820;2024-03-17T00:14:34;5.20;92.80
10276;DHT22;5183;51.190;6.820;2024-03-17T00:17:00;5.20;99.90
10276;DHT22;5183;51.190;6.820;2024-03-17T00:19:27;5.20;99.90
10276;DHT22;5183;51.190;6.820;2024-03-17T00:21:53;5.20;99.90
10276;DHT22;5183;51.190;6.820;2024-03-17T00:24:22;5.20;99.90
10276;DHT22;5183;51.190;6.820;2024-03-17T00:26:47;5.20;99.90
10276;DHT22;5183;51.190;6.820;2024-03-17T00:29:15;5.20;99.90
10276;DHT22;5183;51.190;6.820;2024-03-17T00:31:41;5.10;99.90
10276;DHT22;5183;51.190;6.820;2024-03-17T00:34:08;5.10;99.90
10276;DHT22;5183;51.190;6.820;2024-03-17T00:36:34;5.20;99.90
10276;DHT22;5183;51.190;6.820;2024-03-17T00:39:02;5.20;99.90
10276;DHT22;5183;51.190;6.820;2024-03-17T00:41:30;5.20;1.00
10276;DHT22;5183;51.190;6.820;2024-03-17T00:43:57;5.20;1.00
10276;DHT22;5183;51.190;6.820;2024-03-17T00:46:22;5.20;1.00
10276;DHT22;5183;51.190;6.820;2024-03-17T00:48:49;5.30;1.00
10276;DHT22;5183;51.190;6.820;2024-03-17T00:51:16;5.30;99.90
10276;DHT22;5183;51.190;6.820;2024-03-17T00:53:43;5.20;99.90
10276;DHT22;5183;51.190;6.820;2024-03-17T00:56:08;5.20;99.90
10276;DHT22;5183;51.190;6.820;2024-03-17T00:58:37;5.20;99.90
10276;DHT22;5183;51.190;6.820;2024-03-17T01:01:04;5.20;99.90
10276;DHT22;5183;51.190;6.820;2024-03-17T01:03:31;5.20;99.90
10276;DHT22;5183;51.190;6.820;2024-03-17T01:05:57;5.20;99.90
10276;DHT22;5183;51.190;6.820;2024-03-17T01:08:23;5.20;99.90
10276;DHT22;5183;51.190;6.820;2024-03-17T01:10:50;5.20;99.90
10276;DHT22;5183;51.190;6.820;2024-03-17T01:13:17;5.20;99.90
10276;DHT22;5183;51.190;6.820;2024-03-17T01:15:45;5.20;99.90
10276;DHT22;5183;51.190;6.820;2024-03-17T01:18:12;5.20;99.90
10276;DHT22;5183;51.190;6.820;2024-03-17T01:20:39;5.10;1.00
10276;DHT22;5183;51.190;6.820;2024-03-17T01:23:06;5.10;1.00
10276;DHT22;5183;51.190;6.820;2024-03-17T01:25:33;5.10;1.00
10276;DHT22;5183;51.190;6.820;2024-03-17T01:28:02;5.10;1.00
10276;DHT22;5183;51.190;6.820;2024-03-17T01:30:28;5.10;1.00
10276;DHT22;5183;51.190;6.820;2024-03-17T01:32:56;5.10;1.00
10276;DHT22;5183;51.190;6.820;2024-03-17T01:35:22;5.00;60.90
10276;DHT22;5183;51.190;6.820;2024-03-17T01:37:49;5.10;99.90
10276;DHT22;5183;51.190;6.820;2024-03-17T01:40:15;5.10;99.90
10276;DHT22;5183;51.190;6.820;2024-03-17T01:42:42;5.10;99.90
10276;DHT22;5183;51.190;6.820;2024-03-17T01:45:23;5.10;99.90
10276;DHT22;5183;51.190;6.820;2024-03-17T01:47:51;5.10;99.90
10276;DHT22;5183;51.190;6.820;2024-03-17T01:50:19;5.10;99.90
10276;DHT22;5183;51.190;6.820;2024-03-17T01:52:51;5.10;1.00
10276;DHT22;5183;51.190;6.820;2024-03-17T01:55:17;5.00;47.20
10276;DHT22;5183;51.190;6.820;2024-03-17T01:57:44;5.10;99.90
10276;DHT22;5183;51.190;6.820;2024-03-17T02:00:11;5.00;99.90
10276;DHT22;5183;51.190;6.820;2024-03-17T02:02:39;5.00;1.00
10276;DHT22;5183;51.190;6.820;2024-03-17T02:05:06;5.10;1.00
10276;DHT22;5183;51.190;6.820;2024-03-17T02:07:35;5.10;99.90
10276;DHT22;5183;51.190;6.820;2024-03-17T02:10:01;5.00;99.90
10276;DHT22;5183;51.190;6.820;2024-03-17T02:12:31;5.00;1.00
10276;DHT22;5183;51.190;6.820;2024-03-17T02:14:57;4.90;1.00
10276;DHT22;5183;51.190;6.820;2024-03-17T02:17:24;4.90;1.00
10276;DHT22;5183;51.190;6.820;2024-03-17T02:19:51;4.80;99.90
10276;DHT22;5183;51.190;6.820;2024-03-17T02:22:19;4.70;99.90
10276;DHT22;5183;51.190;6.820;2024-03-17T02:24:45;4.70;1.00
10276;DHT22;5183;51.190;6.820;2024-03-17T02:27:12;4.60;1.00
10276;DHT22;5183;51.190;6.820;2024-03-17T02:29:39;4.50;99.90
10276;DHT22;5183;51.190;6.820;2024-03-17T02:32:06;4.50;1.00
10276;DHT22;5183;51.190;6.820;2024-03-17T02:34:33;4.50;99.90
10276;DHT22;5183;51.190;6.820;2024-03-17T02:37:00;4.40;99.90
10276;DHT22;5183;51.190;6.820;2024-03-17T02:39:27;4.40;1.00
10276;DHT22;5183;51.190;6.820;2024-03-17T02:42:11;4.40;1.00
10276;DHT22;5183;51.190;6.820;2024-03-17T02:44:38;4.30;1.00
10276;DHT22;5183;51.190;6.820;2024-03-17T02:47:07;4.30;99.90
10276;DHT22;5183;51.190;6.820;2024-03-17T02:49:35;4.30;99.90
10276;DHT22;5183;51.190;6.820;2024-03-17T02:52:05;4.40;1.00
10276;DHT22;5183;51.190;6.820;2024-03-17T02:54:34;4.40;99.90
10276;DHT22;5183;51.190;6.820;2024-03-17T02:57:01;4.40;1.00
10276;DHT22;5183;51.190;6.820;2024-03-17T02:59:28;4.40;1.00
10276;DHT22;5183;51.190;6.820;2024-03-17T03:01:55;4.40;99.90
10276;DHT22;5183;51.190;6.820;2024-03-17T03:04:21;4.40;99.90
10276;DHT22;5183;51.190;6.820;2024-03-17T03:06:48;4.40;99.90
10276;DHT22;5183;51.190;6.820;2024-03-17T03:09:15;4.50;99.90
10276;DHT22;5183;51.190;6.820;2024-03-17T03:11:48;4.50;1.00
10276;DHT22;5183;51.190;6.820;2024-03-17T03:14:15;4.60;1.00
10276;DHT22;5183;51.190;6.820;2024-03-17T03:16:42;4.60;1.00
10276;DHT22;5183;51.190;6.820;2024-03-17T03:19:09;4.60;1.00
10276;DHT22;5183;51.190;6.820;2024-03-17T03:21:35;4.60;99.90
10276;DHT22;5183;51.190;6.820;2024-03-17T03:24:02;4.70;1.00
10276;DHT22;5183;51.190;6.820;2024-03-17T03:26:29;4.70;99.90
10276;DHT22;5183;51.190;6.820;2024-03-17T03:28:57;4.70;99.90
10276;DHT22;5183;51.190;6.820;2024-03-17T03:31:24;4.70;1.00
10276;DHT22;5183;51.190;6.820;2024-03-17T03:33:51;4.80;1.00
10276;DHT22;5183;51.190;6.820;2024-03-17T03:36:18;4.70;1.00
10276;DHT22;5183;51.190;6.820;2024-03-17T03:38:46;4.70;1.00
10276;DHT22;5183;51.190;6.820;2024-03-17T03:41:14;4.80;1.00
10276;DHT22;5183;51.190;6.820;2024-03-17T03:43:41;4.80;1.00
10276;DHT22;5183;51.190;6.820;2024-03-17T03:46:10;4.70;1.00
10276;DHT22;5183;51.190;6.820;2024-03-17T03:48:36;4.70;1.00
10276;DHT22;5183;51.190;6.820;2024-03-17T03:51:04;4.70;1.00
10276;DHT22;5183;51.190;6.820;2024-03-17T03:53:31;4.70;1.00
10276;DHT22;5183;51.190;6.820;2024-03-17T03:55:58;4.70;1.00
10276;DHT22;5183;51.190;6.820;2024-03-17T03:58:27;4.70;1.00
10276;DHT22;5183;51.190;6.820;2024-03-17T04:00:54;4.70;1.00
10276;DHT22;5183;51.190;6.820;2024-03-17T04:03:23;4.60;99.90
10276;DHT22;5183;51.190;6.820;2024-03-17T04:05:50;4.60;99.90
10276;DHT22;5183;51.190;6.820;2024-03-17T04:08:19;4.70;99.90
10276;DHT22;5183;51.190;6.820;2024-03-17T04:10:49;4.70;99.90
10276;DHT22;5183;51.190;6.820;2024-03-17T04:13:17;4.70;99.90
10276;DHT22;5183;51.190;6.820;2024-03-17T04:15:44;4.70;99.90
10276;DHT22;5183;51.190;6.820;2024-03-17T04:18:11;4.70;99.90
10276;DHT22;5183;51.190;6.820;2024-03-17T04:20:40;4.70;99.90
10276;DHT22;5183;51.190;6.820;2024-03-17T04:23:07;4.80;1.00
10276;DHT22;5183;51.190;6.820;2024-03-17T04:25:34;5.50;1.00
10276;DHT22;5183;51.190;6.820;2024-03-17T04:28:01;4.80;1.00
10276;DHT22;5183;51.190;6.820;2024-03-17T04:30:26;4.90;1.00
10276;DHT22;5183;51.190;6.820;2024-03-17T04:32:53;4.90;45.50
10276;DHT22;5183;51.190;6.820;2024-03-17T04:35:20;5.00;1.00
10276;DHT22;5183;51.190;6.820;2024-03-17T04:37:48;5.10;99.90
10276;DHT22;5183;51.190;6.820;2024-03-17T04:40:15;5.10;1.00
10276;DHT22;5183;51.190;6.820;2024-03-17T04:42:42;5.20;99.90
10276;DHT22;5183;51.190;6.820;2024-03-17T04:45:09;5.10;1.00
10276;DHT22;5183;51.190;6.820;2024-03-17T04:47:36;5.20;99.90
10276;DHT22;5183;51.190;6.820;2024-03-17T04:50:04;5.20;99.90
10276;DHT22;5183;51.190;6.820;2024-03-17T04:52:31;5.30;1.00
10276;DHT22;5183;51.190;6.820;2024-03-17T04:54:59;5.30;99.90
10276;DHT22;5183;51.190;6.820;2024-03-17T04:57:26;5.30;1.00
10276;DHT22;5183;51.190;6.820;2024-03-17T04:59:53;5.40;1.00
10276;DHT22;5183;51.190;6.820;2024-03-17T05:02:20;5.30;99.90
10276;DHT22;5183;51.190;6.820;2024-03-17T05:04:48;5.40;99.90
10276;DHT22;5183;51.190;6.820;2024-03-17T05:07:15;5.40;99.90
10276;DHT22;5183;51.190;6.820;2024-03-17T05:09:42;5.40;1.00
10276;DHT22;5183;51.190;6.820;2024-03-17T05:12:11;5.50;99.90
10276;DHT22;5183;51.190;6.820;2024-03-17T05:14:38;5.40;1.00
10276;DHT22;5183;51.190;6.820;2024-03-17T05:17:05;5.40;1.00
10276;DHT22;5183;51.190;6.820;2024-03-17T05:19:31;5.40;1.00
10276;DHT22;5183;51.190;6.820;2024-03-17T05:21:58;5.40;1.00
10276;DHT22;5183;51.190;6.820;2024-03-17T05:24:26;5.30;99.90
10276;DHT22;5183;51.190;6.820;2024-03-17T05:26:53;5.30;99.90
10276;DHT22;5183;51.190;6.820;2024-03-17T05:29:21;5.20;99.90
10276;DHT22;5183;51.190;6.820;2024-03-17T05:31:49;5.10;99.90
10276;DHT22;5183;51.190;6.820;2024-03-17T05:34:16;5.10;99.90
10276;DHT22;5183;51.190;6.820;2024-03-17T05:36:43;5.00;99.90
10276;DHT22;5183;51.190;6.820;2024-03-17T05:39:09;5.00;99.90
10276;DHT22;5183;51.190;6.820;2024-03-17T05:41:36;5.00;1.00
10276;DHT22;5183;51.190;6.820;2024-03-17T05:44:03;4.90;1.00
10276;DHT22;5183;51.190;6.820;2024-03-17T05:46:31;4.90;1.00
10276;DHT22;5183;51.190;6.820;2024-03-17T05:48:58;4.90;1.00
10276;DHT22;5183;51.190;6.820;2024-03-17T05:51:25;5.00;1.00
10276;DHT22;5183;51.190;6.820;2024-03-17T05:53:53;5.00;99.90
10276;DHT22;5183;51.190;6.820;2024-03-17T05:56:21;5.10;99.90
10276;DHT22;5183;51.190;6.820;2024-03-17T05:58:49;5.10;62.80
10276;DHT22;5183;51.190;6.820;2024-03-17T06:01:16;5.20;1.00
10276;DHT22;5183;51.190;6.820;2024-03-17T06:03:46;5.20;1.00
10276;DHT22;5183;51.190;6.820;2024-03-17T06:06:12;5.30;1.00
10276;DHT22;5183;51.190;6.820;2024-03-17T06:08:39;5.20;1.00
10276;DHT22;5183;51.190;6.820;2024-03-17T06:11:06;5.30;1.00
10276;DHT22;5183;51.190;6.820;2024-03-17T06:13:33;5.30;99.90
10276;DHT22;5183;51.190;6.820;2024-03-17T06:16:02;5.40;99.90
10276;DHT22;5183;51.190;6.820;2024-03-17T06:18:30;5.30;99.90
10276;DHT22;5183;51.190;6.820;2024-03-17T06:20:58;5.40;99.90
10276;DHT22;5183;51.190;6.820;2024-03-17T06:23:25;5.40;99.90
10276;DHT22;5183;51.190;6.820;2024-03-17T06:25:54;5.40;99.90
10276;DHT22;5183;51.190;6.820;2024-03-17T06:28:22;5.40;99.90
10276;DHT22;5183;51.190;6.820;2024-03-17T06:30:57;5.50;99.90
10276;DHT22;5183;51.190;6.820;2024-03-17T06:33:26;5.50;99.50
10276;DHT22;5183;51.190;6.820;2024-03-17T06:35:53;5.60;1.00
10276;DHT22;5183;51.190;6.820;2024-03-17T06:38:22;5.60;1.00
10276;DHT22;5183;51.190;6.820;2024-03-17T06:40:49;5.70;1.00
10276;DHT22;5183;51.190;6.820;2024-03-17T06:43:16;5.60;1.00
10276;DHT22;5183;51.190;6.820;2024-03-17T06:45:43;5.70;1.00
10276;DHT22;5183;51.190;6.820;2024-03-17T06:48:10;5.70;1.00
10276;DHT22;5183;51.190;6.820;2024-03-17T06:50:38;5.80;1.00
10276;DHT22;5183;51.190;6.820;2024-03-17T06:53:08;5.90;1.00
10276;DHT22;5183;51.190;6.820;2024-03-17T06:55:37;6.00;1.00
10276;DHT22;5183;51.190;6.820;2024-03-17T06:58:04;6.10;1.00
10276;DHT22;5183;51.190;6.820;2024-03-17T07:00:32;6.20;99.90
10276;DHT22;5183;51.190;6.820;2024-03-17T07:02:59;6.30;99.90
10276;DHT22;5183;51.190;6.820;2024-03-17T07:05:25;6.30;99.90
10276;DHT22;5183;51.190;6.820;2024-03-17T07:07:53;6.40;99.90
10276;DHT22;5183;51.190;6.820;2024-03-17T07:10:20;6.40;99.90
10276;DHT22;5183;51.190;6.820;2024-03-17T07:12:48;6.40;99.90
10276;DHT22;5183;51.190;6.820;2024-03-17T07:15:15;6.40;99.90
10276;DHT22;5183;51.190;6.820;2024-03-17T07:17:42;6.40;99.90
10276;DHT22;5183;51.190;6.820;2024-03-17T07:20:23;6.40;99.90
10276;DHT22;5183;51.190;6.820;2024-03-17T07:26:05;6.30;99.90
10276;DHT22;5183;51.190;6.820;2024-03-17T07:28:34;6.20;99.90
10276;DHT22;5183;51.190;6.820;2024-03-17T07:31:01;6.20;99.90
10276;DHT22;5183;51.190;6.820;2024-03-17T07:33:28;6.20;99.90
10276;DHT22;5183;51.190;6.820;2024-03-17T07:35:56;6.20;99.90
10276;DHT22;5183;51.190;6.820;2024-03-17T07:38:28;6.30;99.90
10276;DHT22;5183;51.190;6.820;2024-03-17T07:41:09;6.40;99.90
10276;DHT22;5183;51.190;6.820;2024-03-17T07:43:38;6.60;99.90
10276;DHT22;5183;51.190;6.820;2024-03-17T07:46:17;6.80;99.90
10276;DHT22;5183;51.190;6.820;2024-03-17T07:48:46;6.90;96.80
10276;DHT22;5183;51.190;6.820;2024-03-17T07:51:25;7.00;50.50
10276;DHT22;5183;51.190;6.820;2024-03-17T07:53:55;7.10;16.90
10276;DHT22;5183;51.190;6.820;2024-03-17T07:56:22;7.20;1.40
10276;DHT22;5183;51.190;6.820;2024-03-17T07:58:51;7.20;1.00
10276;DHT22;5183;51.190;6.820;2024-03-17T08:01:18;7.40;1.00
10276;DHT22;5183;51.190;6.820;2024-03-17T08:03:46;7.40;1.00
10276;DHT22;5183;51.190;6.820;2024-03-17T08:06:15;7.50;1.00
10276;DHT22;5183;51.190;6.820;2024-03-17T08:08:41;7.50;1.00
10276;DHT22;5183;51.190;6.820;2024-03-17T08:11:08;7.50;1.00
10276;DHT22;5183;51.190;6.820;2024-03-17T08:13:35;7.60;1.00
10276;DHT22;5183;51.190;6.820;2024-03-17T08:16:05;7.60;1.00
10276;DHT22;5183;51.190;6.820;2024-03-17T08:18:34;7.60;1.00
10276;DHT22;5183;51.190;6.820;2024-03-17T08:21:01;7.70;1.00
10276;DHT22;5183;51.190;6.820;2024-03-17T08:23:30;7.80;1.00
10276;DHT22;5183;51.190;6.820;2024-03-17T08:25:58;7.80;1.00
10276;DHT22;5183;51.190;6.820;2024-03-17T08:28:26;7.90;1.00
10276;DHT22;5183;51.190;6.820;2024-03-17T08:30:53;8.00;1.00
10276;DHT22;5183;51.190;6.820;2024-03-17T08:33:22;8.10;1.00
10276;DHT22;5183;51.190;6.820;2024-03-17T08:35:53;8.30;1.00
10276;DHT22;5183;51.190;6.820;2024-03-17T08:38:20;8.40;1.00
10276;DHT22;5183;51.190;6.820;2024-03-17T08:40:48;8.50;1.00
10276;DHT22;5183;51.190;6.820;2024-03-17T08:43:15;8.70;1.00
10276;DHT22;5183;51.190;6.820;2024-03-17T08:45:42;9.00;1.00
10276;DHT22;5183;51.190;6.820;2024-03-17T08:48:09;9.10;1.00
10276;DHT22;5183;51.190;6.820;2024-03-17T08:50:38;9.30;1.00
10276;DHT22;5183;51.190;6.820;2024-03-17T08:53:05;9.50;1.00
10276;DHT22;5183;51.190;6.820;2024-03-17T08:55:32;9.60;1.00
10276;DHT22;5183;51.190;6.820;2024-03-17T08:57:59;9.80;1.00
10276;DHT22;5183;51.190;6.820;2024-03-17T09:00:26;9.90;1.00
10276;DHT22;5183;51.190;6.820;2024-03-17T09:02:53;10.00;1.00
10276;DHT22;5183;51.190;6.820;2024-03-17T09:05:20;10.10;1.00
10276;DHT22;5183;51.190;6.820;2024-03-17T09:07:48;10.30;1.00
10276;DHT22;5183;51.190;6.820;2024-03-17T09:10:15;10.30;1.00
10276;DHT22;5183;51.190;6.820;2024-03-17T09:12:42;10.40;1.00
10276;DHT22;5183;51.190;6.820;2024-03-17T09:15:09;10.50;1.00
10276;DHT22;5183;51.190;6.820;2024-03-17T09:17:38;10.60;1.00
10276;DHT22;5183;51.190;6.820;2024-03-17T09:20:06;10.60;1.00
10276;DHT22;5183;51.190;6.820;2024-03-17T09:22:36;10.80;1.00
10276;DHT22;5183;51.190;6.820;2024-03-17T09:25:07;11.00;1.00
10276;DHT22;5183;51.190;6.820;2024-03-17T09:27:34;11.00;1.00
10276;DHT22;5183;51.190;6.820;2024-03-17T09:30:02;11.00;1.00
10276;DHT22;5183;51.190;6.820;2024-03-17T09:32:31;11.10;1.00
10276;DHT22;5183;51.190;6.820;2024-03-17T09:34:58;11.20;1.00
10276;DHT22;5183;51.190;6.820;2024-03-17T09:37:25;11.20;1.00
10276;DHT22;5183;51.190;6.820;2024-03-17T09:39:52;11.30;1.00
10276;DHT22;5183;51.190;6.820;2024-03-17T09:42:24;11.30;1.00
10276;DHT22;5183;51.190;6.820;2024-03-17T09:44:53;11.50;1.00
10276;DHT22;5183;51.190;6.820;2024-03-17T09:47:21;11.60;1.00
10276;DHT22;5183;51.190;6.820;2024-03-17T09:49:48;11.80;1.00
10276;DHT22;5183;51.190;6.820;2024-03-17T09:52:20;11.90;1.00
10276;DHT22;5183;51.190;6.820;2024-03-17T09:54:51;11.90;1.00
10276;DHT22;5183;51.190;6.820;2024-03-17T09:57:23;11.90;1.00
10276;DHT22;5183;51.190;6.820;2024-03-17T09:59:51;12.00;1.00
10276;DHT22;5183;51.190;6.820;2024-03-17T10:02:19;12.00;1.00
10276;DHT22;5183;51.190;6.820;2024-03-17T10:04:47;12.10;1.00
10276;DHT22;5183;51.190;6.820;2024-03-17T10:07:14;12.10;1.00
10276;DHT22;5183;51.190;6.820;2024-03-17T10:09:41;12.20;1.00
10276;DHT22;5183;51.190;6.820;2024-03-17T10:15:10;12.30;1.00
10276;DHT22;5183;51.190;6.820;2024-03-17T10:17:38;12.50;99.90
10276;DHT22;5183;51.190;6.820;2024-03-17T10:20:15;12.50;99.90
10276;DHT22;5183;51.190;6.820;2024-03-17T10:22:59;12.60;99.90
10276;DHT22;5183;51.190;6.820;2024-03-17T10:25:27;12.60;99.90
10276;DHT22;5183;51.190;6.820;2024-03-17T10:27:54;12.60;99.90
10276;DHT22;5183;51.190;6.820;2024-03-17T10:30:24;12.70;99.90
10276;DHT22;5183;51.190;6.820;2024-03-17T10:32:56;12.80;99.90
10276;DHT22;5183;51.190;6.820;2024-03-17T10:35:31;12.80;99.90
10276;DHT22;5183;51.190;6.820;2024-03-17T10:37:59;12.80;99.90
10276;DHT22;5183;51.190;6.820;2024-03-17T10:40:27;12.80;99.90
10276;DHT22;5183;51.190;6.820;2024-03-17T10:42:55;12.90;99.90
10276;DHT22;5183;51.190;6.820;2024-03-17T10:45:23;13.10;99.90
10276;DHT22;5183;51.190;6.820;2024-03-17T10:47:52;13.20;99.90
10276;DHT22;5183;51.190;6.820;2024-03-17T10:50:20;13.20;99.90
10276;DHT22;5183;51.190;6.820;2024-03-17T10:52:48;13.30;99.90
10276;DHT22;5183;51.190;6.820;2024-03-17T10:55:21;13.30;99.90
10276;DHT22;5183;51.190;6.820;2024-03-17T10:57:50;13.40;99.90
10276;DHT22;5183;51.190;6.820;2024-03-17T11:00:18;13.50;99.90
10276;DHT22;5183;51.190;6.820;2024-03-17T11:02:46;13.40;99.90
10276;DHT22;5183;51.190;6.820;2024-03-17T11:05:15;13.50;99.90
10276;DHT22;5183;51.190;6.820;2024-03-17T11:07:44;13.30;99.90
10276;DHT22;5183;51.190;6.820;2024-03-17T11:10:16;13.30;99.90
10276;DHT22;5183;51.190;6.820;2024-03-17T11:12:44;13.30;99.90
10276;DHT22;5183;51.190;6.820;2024-03-17T11:15:48;13.40;99.90
10276;DHT22;5183;51.190;6.820;2024-03-17T11:18:35;13.50;1.00
10276;DHT22;5183;51.190;6.820;2024-03-17T11:21:05;13.60;99.90
10276;DHT22;5183;51.190;6.820;2024-03-17T11:23:38;13.80;99.90
10276;DHT22;5183;51.190;6.820;2024-03-17T11:26:06;14.00;99.90
10276;DHT22;5183;51.190;6.820;2024-03-17T11:28:51;14.40;99.90
10276;DHT22;5183;51.190;6.820;2024-03-17T11:31:39;14.50;99.90
10276;DHT22;5183;51.190;6.820;2024-03-17T11:34:28;14.60;99.90
10276;DHT22;5183;51.190;6.820;2024-03-17T11:36:55;14.70;99.90
10276;DHT22;5183;51.190;6.820;2024-03-17T11:39:53;14.80;99.90
10276;DHT22;5183;51.190;6.820;2024-03-17T11:42:28;14.90;1.00
10276;DHT22;5183;51.190;6.820;2024-03-17T11:45:09;14.90;99.90
10276;DHT22;5183;51.190;6.820;2024-03-17T11:47:47;14.90;99.90
10276;DHT22;5183;51.190;6.820;2024-03-17T11:50:27;14.90;99.90
10276;DHT22;5183;51.190;6.820;2024-03-17T11:53:02;14.90;99.90
10276;DHT22;5183;51.190;6.820;2024-03-17T11:55:34;15.00;99.90
10276;DHT22;5183;51.190;6.820;2024-03-17T11:58:12;15.10;99.90
10276;DHT22;5183;51.190;6.820;2024-03-17T12:00:44;15.30;99.90
10276;DHT22;5183;51.190;6.820;2024-03-17T12:03:29;15.40;99.90
10276;DHT22;5183;51.190;6.820;2024-03-17T12:05:59;15.70;99.90
10276;DHT22;5183;51.190;6.820;2024-03-17T12:08:32;15.80;99.90
10276;DHT22;5183;51.190;6.820;2024-03-17T12:11:24;16.00;99.90
10276;DHT22;5183;51.190;6.820;2024-03-17T12:14:19;16.10;99.90
10276;DHT22;5183;51.190;6.820;2024-03-17T12:16:53;16.30;99.90
10276;DHT22;5183;51.190;6.820;2024-03-17T12:19:19;16.30;99.90
10276;DHT22;5183;51.190;6.820;2024-03-17T12:21:51;16.30;99.90
10276;DHT22;5183;51.190;6.820;2024-03-17T12:24:22;16.30;99.90
10276;DHT22;5183;51.190;6.820;2024-03-17T12:26:57;16.40;99.90
10276;DHT22;5183;51.190;6.820;2024-03-17T12:29:37;16.60;99.90
10276;DHT22;5183;51.190;6.820;2024-03-17T12:32:18;16.50;99.90
10276;DHT22;5183;51.190;6.820;2024-03-17T12:34:50;16.40;99.90
10276;DHT22;5183;51.190;6.820;2024-03-17T12:37:22;16.50;99.90
10276;DHT22;5183;51.190;6.820;2024-03-17T12:40:06;16.50;99.90
10276;DHT22;5183;51.190;6.820;2024-03-17T12:42:55;16.50;99.90
10276;DHT22;5183;51.190;6.820;2024-03-17T12:45:29;16.50;99.90
10276;DHT22;5183;51.190;6.820;2024-03-17T12:47:59;16.50;99.90
10276;DHT22;5183;51.190;6.820;2024-03-17T12:50:24;16.70;99.90
10276;DHT22;5183;51.190;6.820;2024-03-17T12:52:54;16.70;99.90
10276;DHT22;5183;51.190;6.820;2024-03-17T12:55:21;16.70;99.90
10276;DHT22;5183;51.190;6.820;2024-03-17T12:58:06;16.80;99.90
10276;DHT22;5183;51.190;6.820;2024-03-17T13:00:57;16.70;99.90
10276;DHT22;5183;51.190;6.820;2024-03-17T13:03:25;16.70;99.90
10276;DHT22;5183;51.190;6.820;2024-03-17T13:05:52;16.60;99.90
10276;DHT22;5183;51.190;6.820;2024-03-17T13:08:20;16.60;99.90
10276;DHT22;5183;51.190;6.820;2024-03-17T13:10:47;16.60;99.90
10276;DHT22;5183;51.190;6.820;2024-03-17T13:13:15;16.70;99.90
10276;DHT22;5183;51.190;6.820;2024-03-17T13:15:43;16.70;99.90
10276;DHT22;5183;51.190;6.820;2024-03-17T13:18:16;16.60;99.90
10276;DHT22;5183;51.190;6.820;2024-03-17T13:20:44;16.60;99.90
10276;DHT22;5183;51.190;6.820;2024-03-17T13:23:11;16.60;99.90
10276;DHT22;5183;51.190;6.820;2024-03-17T13:25:50;16.60;99.90
10276;DHT22;5183;51.190;6.820;2024-03-17T13:28:17;16.50;99.90
10276;DHT22;5183;51.190;6.820;2024-03-17T13:30:44;16.40;99.90
10276;DHT22;5183;51.190;6.820;2024-03-17T13:33:12;16.30;99.90
10276;DHT22;5183;51.190;6.820;2024-03-17T13:35:40;16.20;99.90
10276;DHT22;5183;51.190;6.820;2024-03-17T13:38:08;16.20;99.90
10276;DHT22;5183;51.190;6.820;2024-03-17T13:40:37;16.20;99.90
10276;DHT22;5183;51.190;6.820;2024-03-17T13:43:07;16.10;99.90
10276;DHT22;5183;51.190;6.820;2024-03-17T13:45:39;16.10;99.90
10276;DHT22;5183;51.190;6.820;2024-03-17T13:48:15;16.00;99.90
10276;DHT22;5183;51.190;6.820;2024-03-17T13:50:42;16.00;99.90
10276;DHT22;5183;51.190;6.820;2024-03-17T13:53:10;16.10;99.90
10276;DHT22;5183;51.190;6.820;2024-03-17T13:55:39;16.10;99.90
10276;DHT22;5183;51.190;6.820;2024-03-17T13:58:27;16.00;99.90
10276;DHT22;5183;51.190;6.820;2024-03-17T14:01:03;16.00;99.90
10276;DHT22;5183;51.190;6.820;2024-03-17T14:03:30;16.00;99.90
10276;DHT22;5183;51.190;6.820;2024-03-17T14:06:02;16.00;99.90
10276;DHT22;5183;51.190;6.820;2024-03-17T14:08:32;16.20;99.90
10276;DHT22;5183;51.190;6.820;2024-03-17T14:11:03;16.20;99.90
10276;DHT22;5183;51.190;6.820;2024-03-17T14:13:34;16.20;99.90
10276;DHT22;5183;51.190;6.820;2024-03-17T14:16:04;16.30;99.90
10276;DHT22;5183;51.190;6.820;2024-03-17T14:18:40;16.40;99.90
10276;DHT22;5183;51.190;6.820;2024-03-17T14:21:14;16.40;99.90
10276;DHT22;5183;51.190;6.820;2024-03-17T14:23:50;16.40;99.90
10276;DHT22;5183;51.190;6.820;2024-03-17T14:26:23;16.50;99.90
10276;DHT22;5183;51.190;6.820;2024-03-17T14:29:05;16.40;99.90
10276;DHT22;5183;51.190;6.820;2024-03-17T14:31:41;16.50;99.90
10276;DHT22;5183;51.190;6.820;2024-03-17T14:34:21;16.50;99.90
10276;DHT22;5183;51.190;6.820;2024-03-17T14:36:48;16.40;99.90
10276;DHT22;5183;51.190;6.820;2024-03-17T14:39:18;16.40;99.90
10276;DHT22;5183;51.190;6.820;2024-03-17T14:41:51;16.40;99.90
10276;DHT22;5183;51.190;6.820;2024-03-17T14:44:30;16.40;99.90
10276;DHT22;5183;51.190;6.820;2024-03-17T14:47:11;16.40;99.90
10276;DHT22;5183;51.190;6.820;2024-03-17T14:49:46;16.40;99.90
10276;DHT22;5183;51.190;6.820;2024-03-17T14:52:16;16.50;99.90
10276;DHT22;5183;51.190;6.820;2024-03-17T14:54:43;16.40;99.90
10276;DHT22;5183;51.190;6.820;2024-03-17T14:57:15;16.50;99.90
10276;DHT22;5183;51.190;6.820;2024-03-17T14:59:54;16.60;99.90
10276;DHT22;5183;51.190;6.820;2024-03-17T15:02:32;16.70;99.90
10276;DHT22;5183;51.190;6.820;2024-03-17T15:05:03;16.90;99.90
10276;DHT22;5183;51.190;6.820;2024-03-17T15:07:32;17.00;99.90
10276;DHT22;5183;51.190;6.820;2024-03-17T15:10:06;17.10;99.90
10276;DHT22;5183;51.190;6.820;2024-03-17T15:12:38;17.10;99.90
10276;DHT22;5183;51.190;6.820;2024-03-17T15:15:08;17.10;99.90
10276;DHT22;5183;51.190;6.820;2024-03-17T15:17:47;17.00;99.90
10276;DHT22;5183;51.190;6.820;2024-03-17T15:20:21;17.00;99.90
10276;DHT22;5183;51.190;6.820;2024-03-17T15:23:13;16.90;99.90
10276;DHT22;5183;51.190;6.820;2024-03-17T15:25:41;16.90;99.90
10276;DHT22;5183;51.190;6.820;2024-03-17T15:28:13;16.80;99.90
10276;DHT22;5183;51.190;6.820;2024-03-17T15:30:47;16.70;99.90
10276;DHT22;5183;51.190;6.820;2024-03-17T15:33:16;16.60;99.90
10276;DHT22;5183;51.190;6.820;2024-03-17T15:35:49;16.50;99.90
10276;DHT22;5183;51.190;6.820;2024-03-17T15:38:26;16.50;99.90
10276;DHT22;5183;51.190;6.820;2024-03-17T15:40:59;16.40;99.90
10276;DHT22;5183;51.190;6.820;2024-03-17T15:43:33;16.40;99.90
10276;DHT22;5183;51.190;6.820;2024-03-17T15:46:17;16.40;99.90
10276;DHT22;5183;51.190;6.820;2024-03-17T15:51:45;16.30;99.90
10276;DHT22;5183;51.190;6.820;2024-03-17T15:54:12;16.30;99.90
10276;DHT22;5183;51.190;6.820;2024-03-17T15:56:38;16.30;99.90
10276;DHT22;5183;51.190;6.820;2024-03-17T15:59:05;16.30;99.90
10276;DHT22;5183;51.190;6.820;2024-03-17T16:01:34;16.40;99.90
10276;DHT22;5183;51.190;6.820;2024-03-17T16:04:01;16.40;99.90
10276;DHT22;5183;51.190;6.820;2024-03-17T16:06:28;16.40;99.90
10276;DHT22;5183;51.190;6.820;2024-03-17T16:08:55;16.50;99.90
10276;DHT22;5183;51.190;6.820;2024-03-17T16:11:25;16.50;99.90
10276;DHT22;5183;51.190;6.820;2024-03-17T16:13:54;16.50;99.90
10276;DHT22;5183;51.190;6.820;2024-03-17T16:16:23;16.50;99.90
10276;DHT22;5183;51.190;6.820;2024-03-17T16:18:54;16.70;99.90
10276;DHT22;5183;51.190;6.820;2024-03-17T16:21:22;16.70;99.90
10276;DHT22;5183;51.190;6.820;2024-03-17T16:23:51;16.60;99.90
10276;DHT22;5183;51.190;6.820;2024-03-17T16:26:19;16.50;99.90